EBCV

Chièvres Air Base Airport

Chièvres, Belgium
METAR EBCV 160555Z AUTO 17004KT 9999 OVC031/// 17/14 Q1017 BLU
Observed Flight Rules
Aug-16 @ 05:55 UTC (20 minutes ago) Visual Flight Rules
Wind Visibility Clouds
170° at 4 knots 10,000+ meters
  • Overcast at 3,100' AGL
Temperatures Readings
Current 17°C / 63°F
Dewpoint 14°C / 57°F
Humidity 83%
Altimeter 30.03" Hg
Pressure 1017 hPa
Elevation 63
METAR EBCV 160555Z AUTO 17004KT 9999 OVC031/// 17/14 Q1017 BLU
Observed Flight Rules
Aug-16 @ 05:55 UTC
(20 minutes ago)
VFR
Wind Visibility
170° at 4 knots 10,000+ meters
Clouds
  • Overcast at 3,100' AGL
Temperature Dewpoint
17°C / 63°F 14°C / 57°F
Humidity Altimeter Pressure
83% 30.03" Hg 1017 hPa